Roanoke, Illinois
Current Conditions -  °F | °C
As of 7:15 PM on Sunday 23 Nov 2014 (Local Time) from KC75 Reporting Station
Light Rain Light Rain  
Wind Chill: 48°   Ceiling: 500
Heat Index: 48°   Visibility: 4mi
Dew Point: 47°   Wind: 0mph
Humidity: 96%   Direction: NA
Pressure: 29.27"   Gusts: NA
Location:  40.8°N, 89.2°W
Report Text: KC75 240115Z AUTO 00000KT 4SM -RA OVC005 09/09 A2927 RMK AO2 P0001 T00910085
Loading
Personal Weather Stations






























Interactive Weather Map New forecast layout! Learn more

10-Day Weather Forecast

Advertisements
Track Severe Weather on mobile